sensor_id;sensor_type;location;lat;lon;timestamp;pressure;altitude;pressure_sealevel;temperature
42197;BMP280;27866;48.146;17.098;2023-10-19T00:04:02;98778.78;;;14.64
42197;BMP280;27866;48.146;17.098;2023-10-19T00:08:14;98767.13;;;14.76
42197;BMP280;27866;48.146;17.098;2023-10-19T00:12:31;98762.97;;;14.82
42197;BMP280;27866;48.146;17.098;2023-10-19T00:16:43;98750.88;;;14.81
42197;BMP280;27866;48.146;17.098;2023-10-19T00:21:07;98746.59;;;14.73
42197;BMP280;27866;48.146;17.098;2023-10-19T00:25:42;98743.38;;;14.78
42197;BMP280;27866;48.146;17.098;2023-10-19T00:29:53;98736.38;;;14.79
42197;BMP280;27866;48.146;17.098;2023-10-19T00:34:07;98724.41;;;14.86
42197;BMP280;27866;48.146;17.098;2023-10-19T00:38:18;98725.50;;;14.83
42197;BMP280;27866;48.146;17.098;2023-10-19T00:42:49;98723.91;;;14.82
42197;BMP280;27866;48.146;17.098;2023-10-19T00:47:05;98721.38;;;14.73
42197;BMP280;27866;48.146;17.098;2023-10-19T00:51:25;98712.63;;;14.82
42197;BMP280;27866;48.146;17.098;2023-10-19T00:55:39;98698.81;;;14.89
42197;BMP280;27866;48.146;17.098;2023-10-19T00:59:52;98698.81;;;14.89
42197;BMP280;27866;48.146;17.098;2023-10-19T01:04:05;98695.22;;;14.82
42197;BMP280;27866;48.146;17.098;2023-10-19T01:08:16;98695.56;;;14.87
42197;BMP280;27866;48.146;17.098;2023-10-19T01:12:45;98682.78;;;14.77
42197;BMP280;27866;48.146;17.098;2023-10-19T01:16:56;98678.31;;;14.86
42197;BMP280;27866;48.146;17.098;2023-10-19T01:21:07;98657.78;;;14.91
42197;BMP280;27866;48.146;17.098;2023-10-19T01:25:22;98634.59;;;14.80
42197;BMP280;27866;48.146;17.098;2023-10-19T01:29:45;98639.50;;;14.83
42197;BMP280;27866;48.146;17.098;2023-10-19T01:33:57;98645.22;;;14.87
42197;BMP280;27866;48.146;17.098;2023-10-19T01:38:09;98632.34;;;14.85
42197;BMP280;27866;48.146;17.098;2023-10-19T01:42:20;98632.34;;;14.85
42197;BMP280;27866;48.146;17.098;2023-10-19T01:46:32;98626.34;;;14.85
42197;BMP280;27866;48.146;17.098;2023-10-19T01:50:47;98602.72;;;14.86
42197;BMP280;27866;48.146;17.098;2023-10-19T01:54:58;98603.38;;;14.88
42197;BMP280;27866;48.146;17.098;2023-10-19T01:59:21;98586.44;;;14.84
42197;BMP280;27866;48.146;17.098;2023-10-19T02:03:33;98589.13;;;14.75
42197;BMP280;27866;48.146;17.098;2023-10-19T02:07:44;98573.66;;;14.81
42197;BMP280;27866;48.146;17.098;2023-10-19T02:11:56;98564.69;;;14.76
42197;BMP280;27866;48.146;17.098;2023-10-19T02:16:08;98561.19;;;14.85
42197;BMP280;27866;48.146;17.098;2023-10-19T02:20:19;98560.69;;;14.89
42197;BMP280;27866;48.146;17.098;2023-10-19T02:24:35;98560.69;;;14.89
42197;BMP280;27866;48.146;17.098;2023-10-19T02:28:47;98554.16;;;14.85
42197;BMP280;27866;48.146;17.098;2023-10-19T02:33:01;98560.22;;;14.86
42197;BMP280;27866;48.146;17.098;2023-10-19T02:37:14;98561.19;;;14.93
42197;BMP280;27866;48.146;17.098;2023-10-19T02:41:26;98554.84;;;14.95
42197;BMP280;27866;48.146;17.098;2023-10-19T02:45:40;98558.03;;;14.81
42197;BMP280;27866;48.146;17.098;2023-10-19T02:49:52;98543.44;;;14.88
42197;BMP280;27866;48.146;17.098;2023-10-19T02:54:07;98538.38;;;14.94
42197;BMP280;27866;48.146;17.098;2023-10-19T02:58:18;98534.97;;;14.86
42197;BMP280;27866;48.146;17.098;2023-10-19T03:02:29;98532.38;;;14.94
42197;BMP280;27866;48.146;17.098;2023-10-19T03:06:41;98527.47;;;14.91
42197;BMP280;27866;48.146;17.098;2023-10-19T03:10:52;98524.88;;;14.91
42197;BMP280;27866;48.146;17.098;2023-10-19T03:15:14;98513.16;;;14.95
42197;BMP280;27866;48.146;17.098;2023-10-19T03:19:26;98514.28;;;15.00
42197;BMP280;27866;48.146;17.098;2023-10-19T03:23:37;98508.13;;;15.01
42197;BMP280;27866;48.146;17.098;2023-10-19T03:27:48;98506.00;;;15.05
42197;BMP280;27866;48.146;17.098;2023-10-19T03:31:59;98499.81;;;15.06
42197;BMP280;27866;48.146;17.098;2023-10-19T03:36:11;98496.84;;;14.93
42197;BMP280;27866;48.146;17.098;2023-10-19T03:40:24;98485.31;;;14.95
42197;BMP280;27866;48.146;17.098;2023-10-19T03:44:41;98476.03;;;15.01
42197;BMP280;27866;48.146;17.098;2023-10-19T03:49:04;98470.78;;;14.85
42197;BMP280;27866;48.146;17.098;2023-10-19T03:53:22;98465.41;;;14.94
42197;BMP280;27866;48.146;17.098;2023-10-19T03:57:33;98453.84;;;14.89
42197;BMP280;27866;48.146;17.098;2023-10-19T04:01:46;98450.94;;;15.00
42197;BMP280;27866;48.146;17.098;2023-10-19T04:05:57;98455.00;;;15.10
42197;BMP280;27866;48.146;17.098;2023-10-19T04:10:12;98449.47;;;15.05
42197;BMP280;27866;48.146;17.098;2023-10-19T04:14:40;98438.22;;;14.97
42197;BMP280;27866;48.146;17.098;2023-10-19T04:18:52;98440.00;;;15.04
42197;BMP280;27866;48.146;17.098;2023-10-19T04:23:05;98433.84;;;15.05
42197;BMP280;27866;48.146;17.098;2023-10-19T04:27:25;98431.88;;;14.92
42197;BMP280;27866;48.146;17.098;2023-10-19T04:31:37;98433.16;;;14.88
42197;BMP280;27866;48.146;17.098;2023-10-19T04:36:00;98418.19;;;14.97
42197;BMP280;27866;48.146;17.098;2023-10-19T04:40:11;98414.94;;;14.95
42197;BMP280;27866;48.146;17.098;2023-10-19T04:44:22;98400.44;;;15.01
42197;BMP280;27866;48.146;17.098;2023-10-19T04:48:33;98394.75;;;15.05
42197;BMP280;27866;48.146;17.098;2023-10-19T04:52:46;98390.47;;;15.12
42197;BMP280;27866;48.146;17.098;2023-10-19T04:56:58;98386.41;;;15.09
42197;BMP280;27866;48.146;17.098;2023-10-19T05:01:11;98388.34;;;15.07
42197;BMP280;27866;48.146;17.098;2023-10-19T05:05:22;98390.00;;;15.08
42197;BMP280;27866;48.146;17.098;2023-10-19T05:09:33;98383.97;;;15.00
42197;BMP280;27866;48.146;17.098;2023-10-19T05:13:44;98397.34;;;15.05
42197;BMP280;27866;48.146;17.098;2023-10-19T05:17:55;98393.75;;;15.14
42197;BMP280;27866;48.146;17.098;2023-10-19T05:22:08;98395.53;;;15.13
42197;BMP280;27866;48.146;17.098;2023-10-19T05:26:19;98398.47;;;15.18
42197;BMP280;27866;48.146;17.098;2023-10-19T05:30:30;98393.25;;;15.26
42197;BMP280;27866;48.146;17.098;2023-10-19T05:34:42;98390.16;;;15.22
42197;BMP280;27866;48.146;17.098;2023-10-19T05:38:53;98388.34;;;15.23
42197;BMP280;27866;48.146;17.098;2023-10-19T05:43:05;98387.22;;;15.18
42197;BMP280;27866;48.146;17.098;2023-10-19T05:47:16;98373.22;;;15.11
42197;BMP280;27866;48.146;17.098;2023-10-19T05:51:27;98366.53;;;15.24
42197;BMP280;27866;48.146;17.098;2023-10-19T05:55:38;98366.00;;;15.28
42197;BMP280;27866;48.146;17.098;2023-10-19T05:59:50;98369.41;;;15.44
42197;BMP280;27866;48.146;17.098;2023-10-19T06:04:01;98354.13;;;15.41
42197;BMP280;27866;48.146;17.098;2023-10-19T06:08:13;98361.94;;;15.41
42197;BMP280;27866;48.146;17.098;2023-10-19T06:12:24;98364.19;;;15.52
42197;BMP280;27866;48.146;17.098;2023-10-19T06:16:36;98352.22;;;15.65
42197;BMP280;27866;48.146;17.098;2023-10-19T06:20:47;98340.44;;;15.84
42197;BMP280;27866;48.146;17.098;2023-10-19T06:25:02;98334.03;;;15.94
42197;BMP280;27866;48.146;17.098;2023-10-19T06:29:16;98341.69;;;15.96
42197;BMP280;27866;48.146;17.098;2023-10-19T06:33:27;98358.75;;;16.06
42197;BMP280;27866;48.146;17.098;2023-10-19T06:37:38;98359.13;;;16.03
42197;BMP280;27866;48.146;17.098;2023-10-19T06:41:49;98356.50;;;16.03
42197;BMP280;27866;48.146;17.098;2023-10-19T06:46:00;98345.50;;;16.15
42197;BMP280;27866;48.146;17.098;2023-10-19T06:50:13;98346.44;;;16.22
42197;BMP280;27866;48.146;17.098;2023-10-19T06:54:26;98343.66;;;16.23
42197;BMP280;27866;48.146;17.098;2023-10-19T06:58:38;98355.69;;;16.32
42197;BMP280;27866;48.146;17.098;2023-10-19T07:02:50;98349.47;;;16.33
42197;BMP280;27866;48.146;17.098;2023-10-19T07:07:01;98348.78;;;16.39
42197;BMP280;27866;48.146;17.098;2023-10-19T07:11:13;98329.50;;;16.40
42197;BMP280;27866;48.146;17.098;2023-10-19T07:15:24;98325.44;;;16.59
42197;BMP280;27866;48.146;17.098;2023-10-19T07:19:36;98332.00;;;16.55
42197;BMP280;27866;48.146;17.098;2023-10-19T07:23:48;98328.75;;;16.53
42197;BMP280;27866;48.146;17.098;2023-10-19T07:28:03;98317.97;;;16.56
42197;BMP280;27866;48.146;17.098;2023-10-19T07:32:16;98313.03;;;16.61
42197;BMP280;27866;48.146;17.098;2023-10-19T07:36:27;98310.16;;;16.70
42197;BMP280;27866;48.146;17.098;2023-10-19T07:40:39;98316.22;;;16.71
42197;BMP280;27866;48.146;17.098;2023-10-19T07:44:51;98304.75;;;16.72
42197;BMP280;27866;48.146;17.098;2023-10-19T07:49:02;98279.34;;;16.88
42197;BMP280;27866;48.146;17.098;2023-10-19T07:53:14;98286.09;;;16.82
42197;BMP280;27866;48.146;17.098;2023-10-19T07:57:25;98286.53;;;16.86
42197;BMP280;27866;48.146;17.098;2023-10-19T08:01:37;98287.94;;;16.96
42197;BMP280;27866;48.146;17.098;2023-10-19T08:05:48;98278.25;;;16.96
42197;BMP280;27866;48.146;17.098;2023-10-19T08:10:00;98276.03;;;17.08
42197;BMP280;27866;48.146;17.098;2023-10-19T08:14:13;98275.13;;;17.01
42197;BMP280;27866;48.146;17.098;2023-10-19T08:18:24;98266.59;;;17.21
42197;BMP280;27866;48.146;17.098;2023-10-19T08:22:36;98256.94;;;17.49
42197;BMP280;27866;48.146;17.098;2023-10-19T08:26:47;98272.06;;;17.68
42197;BMP280;27866;48.146;17.098;2023-10-19T08:31:00;98257.78;;;17.84
42197;BMP280;27866;48.146;17.098;2023-10-19T08:35:11;98253.59;;;18.03
42197;BMP280;27866;48.146;17.098;2023-10-19T08:39:22;98257.78;;;17.98
42197;BMP280;27866;48.146;17.098;2023-10-19T08:43:35;98260.22;;;17.85
42197;BMP280;27866;48.146;17.098;2023-10-19T08:48:00;98268.28;;;18.04
42197;BMP280;27866;48.146;17.098;2023-10-19T08:52:12;98262.22;;;17.83
42197;BMP280;27866;48.146;17.098;2023-10-19T08:56:24;98262.50;;;18.09
42197;BMP280;27866;48.146;17.098;2023-10-19T09:00:49;98258.13;;;18.15
42197;BMP280;27866;48.146;17.098;2023-10-19T09:05:07;98261.31;;;18.45
42197;BMP280;27866;48.146;17.098;2023-10-19T09:09:19;98245.81;;;18.30
42197;BMP280;27866;48.146;17.098;2023-10-19T09:13:48;98237.88;;;18.24
42197;BMP280;27866;48.146;17.098;2023-10-19T09:22:25;98232.34;;;18.13
42197;BMP280;27866;48.146;17.098;2023-10-19T09:26:36;98218.53;;;18.45
42197;BMP280;27866;48.146;17.098;2023-10-19T09:30:48;98225.56;;;18.58
42197;BMP280;27866;48.146;17.098;2023-10-19T09:34:59;98208.06;;;18.65
42197;BMP280;27866;48.146;17.098;2023-10-19T09:39:11;98219.50;;;18.58
42197;BMP280;27866;48.146;17.098;2023-10-19T09:43:33;98220.47;;;18.77
42197;BMP280;27866;48.146;17.098;2023-10-19T09:47:49;98217.44;;;19.07
42197;BMP280;27866;48.146;17.098;2023-10-19T09:52:00;98188.50;;;19.27
42197;BMP280;27866;48.146;17.098;2023-10-19T09:56:17;98183.63;;;19.57
42197;BMP280;27866;48.146;17.098;2023-10-19T10:00:30;98182.56;;;19.52
42197;BMP280;27866;48.146;17.098;2023-10-19T10:04:45;98183.88;;;19.68
42197;BMP280;27866;48.146;17.098;2023-10-19T10:08:59;98190.97;;;19.74
42197;BMP280;27866;48.146;17.098;2023-10-19T10:17:38;98181.88;;;19.76
42197;BMP280;27866;48.146;17.098;2023-10-19T10:22:11;98179.00;;;19.59
42197;BMP280;27866;48.146;17.098;2023-10-19T10:26:24;98176.22;;;19.34
42197;BMP280;27866;48.146;17.098;2023-10-19T10:30:35;98168.44;;;19.46
42197;BMP280;27866;48.146;17.098;2023-10-19T10:34:47;98163.03;;;19.60
42197;BMP280;27866;48.146;17.098;2023-10-19T10:39:02;98148.81;;;20.13
42197;BMP280;27866;48.146;17.098;2023-10-19T10:43:18;98135.06;;;19.99
42197;BMP280;27866;48.146;17.098;2023-10-19T10:47:29;98120.94;;;20.50
42197;BMP280;27866;48.146;17.098;2023-10-19T10:51:42;98106.78;;;20.51
42197;BMP280;27866;48.146;17.098;2023-10-19T10:55:53;98097.09;;;20.32
42197;BMP280;27866;48.146;17.098;2023-10-19T11:00:12;98089.56;;;20.11
42197;BMP280;27866;48.146;17.098;2023-10-19T11:04:26;98097.72;;;20.34
42197;BMP280;27866;48.146;17.098;2023-10-19T11:08:38;98090.78;;;20.65
42197;BMP280;27866;48.146;17.098;2023-10-19T11:12:49;98091.72;;;21.08
42197;BMP280;27866;48.146;17.098;2023-10-19T11:17:14;98093.66;;;21.67
42197;BMP280;27866;48.146;17.098;2023-10-19T11:21:26;98088.34;;;22.34
42197;BMP280;27866;48.146;17.098;2023-10-19T11:25:37;98077.41;;;22.78
42197;BMP280;27866;48.146;17.098;2023-10-19T11:29:59;98075.28;;;22.86
42197;BMP280;27866;48.146;17.098;2023-10-19T11:34:10;98068.63;;;21.89
42197;BMP280;27866;48.146;17.098;2023-10-19T11:38:21;98071.06;;;21.11
42197;BMP280;27866;48.146;17.098;2023-10-19T11:42:34;98058.00;;;20.67
42197;BMP280;27866;48.146;17.098;2023-10-19T11:46:45;98063.25;;;20.67
42197;BMP280;27866;48.146;17.098;2023-10-19T11:50:56;98048.88;;;21.31
42197;BMP280;27866;48.146;17.098;2023-10-19T11:55:07;98041.00;;;22.21
42197;BMP280;27866;48.146;17.098;2023-10-19T11:59:19;98025.88;;;23.27
42197;BMP280;27866;48.146;17.098;2023-10-19T12:03:31;98033.97;;;24.11
42197;BMP280;27866;48.146;17.098;2023-10-19T12:07:42;98019.91;;;25.11
42197;BMP280;27866;48.146;17.098;2023-10-19T12:11:56;98011.84;;;25.17
42197;BMP280;27866;48.146;17.098;2023-10-19T12:16:07;98004.53;;;24.30
42197;BMP280;27866;48.146;17.098;2023-10-19T12:20:18;97998.75;;;24.22
42197;BMP280;27866;48.146;17.098;2023-10-19T12:24:32;98000.13;;;23.80
42197;BMP280;27866;48.146;17.098;2023-10-19T12:28:44;97986.75;;;23.18
42197;BMP280;27866;48.146;17.098;2023-10-19T12:33:01;97995.84;;;23.90
42197;BMP280;27866;48.146;17.098;2023-10-19T12:37:12;97973.97;;;26.35
42197;BMP280;27866;48.146;17.098;2023-10-19T12:41:24;97966.44;;;25.41
42197;BMP280;27866;48.146;17.098;2023-10-19T12:45:35;97972.44;;;25.75
42197;BMP280;27866;48.146;17.098;2023-10-19T12:49:47;97961.00;;;26.38
42197;BMP280;27866;48.146;17.098;2023-10-19T12:53:58;97951.13;;;26.34
42197;BMP280;27866;48.146;17.098;2023-10-19T12:58:14;97949.31;;;26.55
42197;BMP280;27866;48.146;17.098;2023-10-19T13:02:30;97934.56;;;25.09
42197;BMP280;27866;48.146;17.098;2023-10-19T13:06:41;97924.94;;;23.37
42197;BMP280;27866;48.146;17.098;2023-10-19T13:10:52;97939.59;;;22.41
42197;BMP280;27866;48.146;17.098;2023-10-19T13:15:07;97939.06;;;22.50
42197;BMP280;27866;48.146;17.098;2023-10-19T13:19:23;97931.59;;;22.82
42197;BMP280;27866;48.146;17.098;2023-10-19T13:23:37;97917.34;;;22.83
42197;BMP280;27866;48.146;17.098;2023-10-19T13:27:48;97921.13;;;22.23
42197;BMP280;27866;48.146;17.098;2023-10-19T13:32:00;97931.13;;;21.68
42197;BMP280;27866;48.146;17.098;2023-10-19T13:36:11;97911.41;;;21.77
42197;BMP280;27866;48.146;17.098;2023-10-19T13:40:23;97916.81;;;21.58
42197;BMP280;27866;48.146;17.098;2023-10-19T13:44:35;97915.16;;;21.39
42197;BMP280;27866;48.146;17.098;2023-10-19T13:48:46;97900.44;;;21.32
42197;BMP280;27866;48.146;17.098;2023-10-19T13:52:58;97907.44;;;21.14
42197;BMP280;27866;48.146;17.098;2023-10-19T13:57:10;97898.13;;;20.82
42197;BMP280;27866;48.146;17.098;2023-10-19T14:01:21;97913.81;;;20.52
42197;BMP280;27866;48.146;17.098;2023-10-19T14:05:41;97908.03;;;20.80
42197;BMP280;27866;48.146;17.098;2023-10-19T14:09:58;97901.75;;;21.17
42197;BMP280;27866;48.146;17.098;2023-10-19T14:14:09;97885.13;;;23.49
42197;BMP280;27866;48.146;17.098;2023-10-19T14:18:21;97880.25;;;22.50
42197;BMP280;27866;48.146;17.098;2023-10-19T14:22:32;97884.47;;;21.51
42197;BMP280;27866;48.146;17.098;2023-10-19T14:26:47;97866.88;;;20.91
42197;BMP280;27866;48.146;17.098;2023-10-19T14:30:58;97876.00;;;20.53
42197;BMP280;27866;48.146;17.098;2023-10-19T14:35:10;97881.50;;;20.39
42197;BMP280;27866;48.146;17.098;2023-10-19T14:39:25;97848.59;;;20.36
42197;BMP280;27866;48.146;17.098;2023-10-19T14:43:36;97861.66;;;19.75
42197;BMP280;27866;48.146;17.098;2023-10-19T14:47:49;97855.06;;;19.47
42197;BMP280;27866;48.146;17.098;2023-10-19T14:52:02;97852.78;;;19.19
42197;BMP280;27866;48.146;17.098;2023-10-19T14:56:13;97846.56;;;19.20
42197;BMP280;27866;48.146;17.098;2023-10-19T15:00:26;97860.91;;;19.30
42197;BMP280;27866;48.146;17.098;2023-10-19T15:04:47;97865.13;;;19.00
42197;BMP280;27866;48.146;17.098;2023-10-19T15:08:58;97866.25;;;18.66
42197;BMP280;27866;48.146;17.098;2023-10-19T15:13:09;97846.84;;;18.55
42197;BMP280;27866;48.146;17.098;2023-10-19T15:17:21;97853.63;;;18.37
42197;BMP280;27866;48.146;17.098;2023-10-19T15:21:32;97863.69;;;18.33
42197;BMP280;27866;48.146;17.098;2023-10-19T15:25:43;97844.94;;;18.36
42197;BMP280;27866;48.146;17.098;2023-10-19T15:29:55;97844.78;;;18.38
42197;BMP280;27866;48.146;17.098;2023-10-19T15:34:07;97853.41;;;18.38
42197;BMP280;27866;48.146;17.098;2023-10-19T15:38:20;97847.16;;;18.27
42197;BMP280;27866;48.146;17.098;2023-10-19T15:42:32;97853.09;;;18.08
42197;BMP280;27866;48.146;17.098;2023-10-19T15:46:45;97863.53;;;17.96
42197;BMP280;27866;48.146;17.098;2023-10-19T15:50:59;97845.56;;;17.86
42197;BMP280;27866;48.146;17.098;2023-10-19T15:55:11;97843.72;;;17.81
42197;BMP280;27866;48.146;17.098;2023-10-19T15:59:22;97837.47;;;17.55
42197;BMP280;27866;48.146;17.098;2023-10-19T16:03:33;97851.47;;;17.41
42197;BMP280;27866;48.146;17.098;2023-10-19T16:07:45;97837.16;;;17.38
42197;BMP280;27866;48.146;17.098;2023-10-19T16:11:56;97839.34;;;17.34
42197;BMP280;27866;48.146;17.098;2023-10-19T16:16:07;97833.66;;;17.25
42197;BMP280;27866;48.146;17.098;2023-10-19T16:20:19;97827.19;;;17.21
42197;BMP280;27866;48.146;17.098;2023-10-19T16:24:30;97824.72;;;17.19
42197;BMP280;27866;48.146;17.098;2023-10-19T16:28:41;97822.41;;;17.04
42197;BMP280;27866;48.146;17.098;2023-10-19T16:32:53;97816.31;;;16.97
42197;BMP280;27866;48.146;17.098;2023-10-19T16:37:04;97809.34;;;16.83
42197;BMP280;27866;48.146;17.098;2023-10-19T16:41:15;97795.75;;;16.74
42197;BMP280;27866;48.146;17.098;2023-10-19T16:45:26;97841.94;;;16.67
42197;BMP280;27866;48.146;17.098;2023-10-19T16:49:37;97821.84;;;16.67
42197;BMP280;27866;48.146;17.098;2023-10-19T16:53:48;97812.19;;;16.48
42197;BMP280;27866;48.146;17.098;2023-10-19T16:57:59;97806.63;;;16.51
42197;BMP280;27866;48.146;17.098;2023-10-19T17:02:12;97808.50;;;16.56
42197;BMP280;27866;48.146;17.098;2023-10-19T17:06:24;97821.91;;;16.53
42197;BMP280;27866;48.146;17.098;2023-10-19T17:10:36;97823.53;;;16.54
42197;BMP280;27866;48.146;17.098;2023-10-19T17:14:47;97811.22;;;16.49
42197;BMP280;27866;48.146;17.098;2023-10-19T17:18:58;97804.75;;;16.45
42197;BMP280;27866;48.146;17.098;2023-10-19T17:23:09;97782.91;;;16.32
42197;BMP280;27866;48.146;17.098;2023-10-19T17:27:20;97769.97;;;16.24
42197;BMP280;27866;48.146;17.098;2023-10-19T17:31:31;97788.91;;;16.32
42197;BMP280;27866;48.146;17.098;2023-10-19T17:35:43;97782.22;;;16.44
42197;BMP280;27866;48.146;17.098;2023-10-19T17:39:54;97801.44;;;16.37
42197;BMP280;27866;48.146;17.098;2023-10-19T17:44:06;97797.88;;;16.44
42197;BMP280;27866;48.146;17.098;2023-10-19T17:48:17;97803.72;;;16.46
42197;BMP280;27866;48.146;17.098;2023-10-19T17:52:28;97786.19;;;16.40
42197;BMP280;27866;48.146;17.098;2023-10-19T17:56:39;97785.84;;;16.43
42197;BMP280;27866;48.146;17.098;2023-10-19T18:00:50;97776.13;;;16.37
42197;BMP280;27866;48.146;17.098;2023-10-19T18:05:02;97777.09;;;16.36
42197;BMP280;27866;48.146;17.098;2023-10-19T18:09:13;97783.97;;;16.37
42197;BMP280;27866;48.146;17.098;2023-10-19T18:13:24;97796.28;;;16.43
42197;BMP280;27866;48.146;17.098;2023-10-19T18:17:35;97777.00;;;16.44
42197;BMP280;27866;48.146;17.098;2023-10-19T18:21:46;97766.19;;;16.47
42197;BMP280;27866;48.146;17.098;2023-10-19T18:25:58;97763.16;;;16.43
42197;BMP280;27866;48.146;17.098;2023-10-19T18:30:10;97773.41;;;16.45
42197;BMP280;27866;48.146;17.098;2023-10-19T18:34:24;97759.72;;;16.43
42197;BMP280;27866;48.146;17.098;2023-10-19T18:38:36;97758.53;;;16.45
42197;BMP280;27866;48.146;17.098;2023-10-19T18:42:47;97760.16;;;16.46
42197;BMP280;27866;48.146;17.098;2023-10-19T18:46:59;97761.31;;;16.44
42197;BMP280;27866;48.146;17.098;2023-10-19T18:51:10;97762.22;;;16.51
42197;BMP280;27866;48.146;17.098;2023-10-19T18:55:21;97727.72;;;16.61
42197;BMP280;27866;48.146;17.098;2023-10-19T18:59:35;97744.31;;;16.74
42197;BMP280;27866;48.146;17.098;2023-10-19T19:03:47;97732.16;;;16.81
42197;BMP280;27866;48.146;17.098;2023-10-19T19:07:58;97755.28;;;16.84
42197;BMP280;27866;48.146;17.098;2023-10-19T19:12:09;97763.38;;;16.89
42197;BMP280;27866;48.146;17.098;2023-10-19T19:16:22;97756.16;;;16.91
42197;BMP280;27866;48.146;17.098;2023-10-19T19:20:33;97740.03;;;16.87
42197;BMP280;27866;48.146;17.098;2023-10-19T19:24:44;97746.25;;;16.86
42197;BMP280;27866;48.146;17.098;2023-10-19T19:28:55;97733.41;;;16.85
42197;BMP280;27866;48.146;17.098;2023-10-19T19:33:06;97741.66;;;16.88
42197;BMP280;27866;48.146;17.098;2023-10-19T19:37:18;97728.19;;;16.91
42197;BMP280;27866;48.146;17.098;2023-10-19T19:41:29;97726.63;;;16.96
42197;BMP280;27866;48.146;17.098;2023-10-19T19:45:40;97721.44;;;17.03
42197;BMP280;27866;48.146;17.098;2023-10-19T19:49:53;97726.91;;;17.08
42197;BMP280;27866;48.146;17.098;2023-10-19T19:54:05;97730.16;;;17.10
42197;BMP280;27866;48.146;17.098;2023-10-19T19:58:16;97744.28;;;17.21
42197;BMP280;27866;48.146;17.098;2023-10-19T20:02:27;97735.06;;;17.25
42197;BMP280;27866;48.146;17.098;2023-10-19T20:06:39;97725.44;;;17.32
42197;BMP280;27866;48.146;17.098;2023-10-19T20:10:50;97723.81;;;17.31
42197;BMP280;27866;48.146;17.098;2023-10-19T20:15:01;97712.38;;;17.38
42197;BMP280;27866;48.146;17.098;2023-10-19T20:19:12;97687.44;;;17.42
42197;BMP280;27866;48.146;17.098;2023-10-19T20:23:24;97680.81;;;17.40
42197;BMP280;27866;48.146;17.098;2023-10-19T20:27:35;97686.41;;;17.30
42197;BMP280;27866;48.146;17.098;2023-10-19T20:31:46;97657.44;;;17.32
42197;BMP280;27866;48.146;17.098;2023-10-19T20:36:02;97646.16;;;17.31
42197;BMP280;27866;48.146;17.098;2023-10-19T20:40:14;97641.50;;;17.27
42197;BMP280;27866;48.146;17.098;2023-10-19T20:44:32;97632.84;;;17.20
42197;BMP280;27866;48.146;17.098;2023-10-19T20:48:50;97636.84;;;17.16
42197;BMP280;27866;48.146;17.098;2023-10-19T20:53:02;97681.09;;;17.18
42197;BMP280;27866;48.146;17.098;2023-10-19T20:57:14;97678.88;;;17.15
42197;BMP280;27866;48.146;17.098;2023-10-19T21:01:25;97669.63;;;17.12
42197;BMP280;27866;48.146;17.098;2023-10-19T21:05:36;97647.69;;;17.13
42197;BMP280;27866;48.146;17.098;2023-10-19T21:09:48;97646.84;;;17.07
42197;BMP280;27866;48.146;17.098;2023-10-19T21:13:59;97633.94;;;16.99
42197;BMP280;27866;48.146;17.098;2023-10-19T21:18:11;97632.28;;;16.92
42197;BMP280;27866;48.146;17.098;2023-10-19T21:22:22;97616.41;;;16.87
42197;BMP280;27866;48.146;17.098;2023-10-19T21:26:33;97597.28;;;16.86
42197;BMP280;27866;48.146;17.098;2023-10-19T21:30:44;97604.88;;;16.82
42197;BMP280;27866;48.146;17.098;2023-10-19T21:34:56;97591.81;;;16.82
42197;BMP280;27866;48.146;17.098;2023-10-19T21:39:08;97592.88;;;16.87
42197;BMP280;27866;48.146;17.098;2023-10-19T21:43:22;97596.72;;;16.91
42197;BMP280;27866;48.146;17.098;2023-10-19T21:47:33;97584.06;;;16.94
42197;BMP280;27866;48.146;17.098;2023-10-19T21:51:47;97581.81;;;16.85
42197;BMP280;27866;48.146;17.098;2023-10-19T21:55:58;97565.44;;;16.77
42197;BMP280;27866;48.146;17.098;2023-10-19T22:00:10;97580.09;;;16.71
42197;BMP280;27866;48.146;17.098;2023-10-19T22:04:45;97571.84;;;16.74
42197;BMP280;27866;48.146;17.098;2023-10-19T22:08:56;97558.16;;;16.72
42197;BMP280;27866;48.146;17.098;2023-10-19T22:13:07;97553.34;;;16.76
42197;BMP280;27866;48.146;17.098;2023-10-19T22:17:18;97521.09;;;16.83
42197;BMP280;27866;48.146;17.098;2023-10-19T22:21:29;97548.00;;;16.83
42197;BMP280;27866;48.146;17.098;2023-10-19T22:25:42;97529.31;;;16.86
42197;BMP280;27866;48.146;17.098;2023-10-19T22:29:53;97527.22;;;16.76
42197;BMP280;27866;48.146;17.098;2023-10-19T22:34:05;97544.94;;;16.80
42197;BMP280;27866;48.146;17.098;2023-10-19T22:38:16;97539.19;;;16.84
42197;BMP280;27866;48.146;17.098;2023-10-19T22:42:27;97533.75;;;16.86
42197;BMP280;27866;48.146;17.098;2023-10-19T22:46:38;97528.09;;;16.82
42197;BMP280;27866;48.146;17.098;2023-10-19T22:50:49;97530.09;;;16.81
42197;BMP280;27866;48.146;17.098;2023-10-19T22:55:01;97525.50;;;16.82
42197;BMP280;27866;48.146;17.098;2023-10-19T22:59:12;97500.34;;;16.82
42197;BMP280;27866;48.146;17.098;2023-10-19T23:03:24;97519.78;;;16.73
42197;BMP280;27866;48.146;17.098;2023-10-19T23:07:35;97517.56;;;16.70
42197;BMP280;27866;48.146;17.098;2023-10-19T23:11:47;97513.94;;;16.71
42197;BMP280;27866;48.146;17.098;2023-10-19T23:16:13;97525.81;;;16.73
42197;BMP280;27866;48.146;17.098;2023-10-19T23:20:25;97519.16;;;16.71
42197;BMP280;27866;48.146;17.098;2023-10-19T23:24:40;97503.69;;;16.69
42197;BMP280;27866;48.146;17.098;2023-10-19T23:28:57;97493.84;;;16.71
42197;BMP280;27866;48.146;17.098;2023-10-19T23:33:15;97487.00;;;16.64
42197;BMP280;27866;48.146;17.098;2023-10-19T23:37:27;97474.75;;;16.71
42197;BMP280;27866;48.146;17.098;2023-10-19T23:41:41;97486.63;;;16.80
42197;BMP280;27866;48.146;17.098;2023-10-19T23:45:52;97477.84;;;16.81
42197;BMP280;27866;48.146;17.098;2023-10-19T23:50:05;97482.22;;;16.80
42197;BMP280;27866;48.146;17.098;2023-10-19T23:54:17;97468.19;;;16.87
42197;BMP280;27866;48.146;17.098;2023-10-19T23:58:28;97475.47;;;16.92
